createdAt,value
2022-07-29T00:02:17.214Z,98694.79
2022-07-29T00:04:49.418Z,98693.80
2022-07-29T00:07:22.563Z,98696.27
2022-07-29T00:09:54.845Z,98692.07
2022-07-29T00:12:28.485Z,98694.70
2022-07-29T00:15:02.025Z,98692.95
2022-07-29T00:17:35.096Z,98692.05
2022-07-29T00:20:09.518Z,98689.29
2022-07-29T00:22:45.205Z,98687.10
2022-07-29T00:25:17.603Z,98692.81
2022-07-29T00:27:49.751Z,98691.95
2022-07-29T00:30:23.282Z,98687.06
2022-07-29T00:32:55.418Z,98684.83
2022-07-29T00:35:46.040Z,98691.33
2022-07-29T00:38:17.554Z,98689.91
2022-07-29T00:40:50.300Z,98690.98
2022-07-29T00:43:22.654Z,98688.69
2022-07-29T00:45:55.067Z,98688.73
2022-07-29T00:48:27.661Z,98689.63
2022-07-29T00:51:02.095Z,98684.67
2022-07-29T00:53:36.305Z,98688.52
2022-07-29T00:56:09.185Z,98685.42
2022-07-29T00:58:42.607Z,98682.34
2022-07-29T01:01:14.864Z,98681.10
2022-07-29T01:03:47.803Z,98680.63
2022-07-29T01:06:21.247Z,98675.51
2022-07-29T01:08:53.780Z,98670.88
2022-07-29T01:11:26.276Z,98671.72
2022-07-29T01:13:59.191Z,98671.73
2022-07-29T01:16:39.802Z,98671.96
2022-07-29T01:19:24.926Z,98668.09
2022-07-29T01:22:00.337Z,98670.41
2022-07-29T01:24:53.842Z,98668.61
2022-07-29T01:27:40.752Z,98671.04
2022-07-29T01:30:15.692Z,98669.73
2022-07-29T01:32:55.021Z,98667.50
2022-07-29T01:35:34.140Z,98667.45
2022-07-29T01:38:14.777Z,98663.73
2022-07-29T01:40:55.282Z,98666.05
2022-07-29T01:43:36.685Z,98662.62
2022-07-29T01:46:16.022Z,98662.98
2022-07-29T01:48:54.472Z,98665.67
2022-07-29T01:51:43.093Z,98665.54
2022-07-29T01:54:21.943Z,98663.83
2022-07-29T01:56:57.737Z,98661.05
2022-07-29T01:59:35.889Z,98659.02
2022-07-29T02:02:13.345Z,98653.66
2022-07-29T02:04:49.593Z,98651.02
2022-07-29T02:07:25.937Z,98651.40
2022-07-29T02:09:59.340Z,98643.44
2022-07-29T02:12:34.341Z,98638.02
2022-07-29T02:15:10.882Z,98642.52
2022-07-29T02:17:47.532Z,98642.05
2022-07-29T02:20:20.279Z,98635.14
2022-07-29T02:22:54.382Z,98637.91
2022-07-29T02:25:37.059Z,98639.56
2022-07-29T02:28:11.518Z,98639.14
2022-07-29T02:30:46.375Z,98638.59
2022-07-29T02:33:20.847Z,98641.90
2022-07-29T02:35:54.431Z,98642.16
2022-07-29T02:38:47.930Z,98639.33
2022-07-29T02:41:25.106Z,98639.31
2022-07-29T02:44:00.874Z,98638.66
2022-07-29T02:46:36.781Z,98641.38
2022-07-29T02:49:17.904Z,98643.70
2022-07-29T02:51:55.238Z,98641.55
2022-07-29T02:54:33.996Z,98641.42
2022-07-29T02:57:17.016Z,98636.92
2022-07-29T02:59:54.161Z,98635.37
2022-07-29T03:02:29.206Z,98635.42
2022-07-29T03:05:06.525Z,98634.47
2022-07-29T03:07:41.000Z,98631.55
2022-07-29T03:10:15.772Z,98633.40
2022-07-29T03:12:48.874Z,98631.31
2022-07-29T03:15:22.275Z,98631.79
2022-07-29T03:17:57.949Z,98637.43
2022-07-29T03:20:30.435Z,98630.79
2022-07-29T03:23:04.136Z,98629.29
2022-07-29T03:25:37.001Z,98625.35
2022-07-29T03:28:09.777Z,98628.54
2022-07-29T03:30:42.122Z,98628.91
2022-07-29T03:33:17.450Z,98630.01
2022-07-29T03:35:50.170Z,98631.70
2022-07-29T03:38:26.269Z,98632.38
2022-07-29T03:41:02.737Z,98632.20
2022-07-29T03:43:38.764Z,98634.12
2022-07-29T03:46:26.780Z,98632.88
2022-07-29T03:49:02.200Z,98641.78
2022-07-29T03:51:37.622Z,98640.69
2022-07-29T03:54:10.795Z,98639.94
2022-07-29T03:56:47.411Z,98636.66
2022-07-29T03:59:20.900Z,98637.95
2022-07-29T04:01:54.163Z,98636.72
2022-07-29T04:04:27.321Z,98634.40
2022-07-29T04:07:01.355Z,98634.44
2022-07-29T04:09:33.686Z,98634.98
2022-07-29T04:12:07.678Z,98634.79
2022-07-29T04:14:40.233Z,98637.61
2022-07-29T04:17:12.546Z,98635.77
2022-07-29T04:19:44.694Z,98637.81
2022-07-29T04:22:17.080Z,98642.28
2022-07-29T04:24:49.334Z,98643.20
2022-07-29T04:27:22.256Z,98647.67
2022-07-29T04:29:56.843Z,98645.88
2022-07-29T04:32:29.962Z,98642.54
2022-07-29T04:35:02.932Z,98642.60
2022-07-29T04:37:35.125Z,98640.15
2022-07-29T04:40:09.310Z,98639.63
2022-07-29T04:42:46.782Z,98634.59
2022-07-29T04:45:22.496Z,98638.58
2022-07-29T04:47:55.118Z,98637.81
2022-07-29T04:50:28.274Z,98637.77
2022-07-29T04:53:00.817Z,98637.56
2022-07-29T04:55:33.134Z,98639.92
2022-07-29T04:58:05.518Z,98637.52
2022-07-29T05:00:37.956Z,98632.15
2022-07-29T05:03:10.372Z,98624.34
2022-07-29T05:05:43.310Z,98623.09
2022-07-29T05:08:15.690Z,98617.95
2022-07-29T05:10:48.060Z,98614.41
2022-07-29T05:13:21.315Z,98612.46
2022-07-29T05:15:53.741Z,98609.30
2022-07-29T05:18:26.367Z,98608.29
2022-07-29T05:20:58.930Z,98609.52
2022-07-29T05:23:34.244Z,98608.55
2022-07-29T05:26:06.540Z,98608.42
2022-07-29T05:28:39.410Z,98606.03
2022-07-29T05:31:11.724Z,98606.30
2022-07-29T05:33:44.078Z,98607.21
2022-07-29T05:36:19.488Z,98603.95
2022-07-29T05:38:53.206Z,98601.69
2022-07-29T05:41:26.027Z,98598.84
2022-07-29T05:43:58.787Z,98606.41
2022-07-29T05:46:31.600Z,98600.48
2022-07-29T05:49:04.043Z,98592.29
2022-07-29T05:51:36.935Z,98597.03
2022-07-29T05:54:09.686Z,98593.48
2022-07-29T05:56:41.796Z,98587.98
2022-07-29T05:59:18.249Z,98584.84
2022-07-29T06:01:50.655Z,98582.50
2022-07-29T06:04:23.134Z,98584.14
2022-07-29T06:06:55.552Z,98577.19
2022-07-29T06:09:29.324Z,98571.85
2022-07-29T06:12:01.790Z,98573.09
2022-07-29T06:14:34.339Z,98572.05
2022-07-29T06:17:06.913Z,98566.95
2022-07-29T06:19:39.824Z,98562.77
2022-07-29T06:22:11.981Z,98545.90
2022-07-29T06:24:45.045Z,98545.36
2022-07-29T06:27:17.492Z,98542.42
2022-07-29T06:29:49.825Z,98544.52
2022-07-29T06:32:22.909Z,98551.28
2022-07-29T06:35:11.786Z,98547.69
2022-07-29T06:37:48.894Z,98549.96
2022-07-29T06:40:35.792Z,98550.20
2022-07-29T06:43:09.826Z,98549.77
2022-07-29T06:45:43.940Z,98544.55
2022-07-29T09:09:17.615Z,98521.30
2022-07-29T09:11:47.257Z,98527.27
2022-07-29T09:14:16.417Z,98526.73
2022-07-29T09:16:54.447Z,98529.61
2022-07-29T09:19:28.739Z,98526.23
2022-07-29T09:21:59.647Z,98524.98
2022-07-29T09:24:39.221Z,98530.21
2022-07-29T09:27:19.555Z,98519.98
2022-07-29T09:29:47.433Z,98521.32
2022-07-29T09:32:18.017Z,98507.93
2022-07-29T09:34:49.274Z,98509.78
2022-07-29T09:37:28.699Z,98504.06
2022-07-29T09:39:58.108Z,98502.94
2022-07-29T09:42:33.280Z,98502.28
2022-07-29T09:45:02.971Z,98494.89
2022-07-29T09:47:46.122Z,98494.77
2022-07-29T09:50:15.415Z,98489.21
2022-07-29T09:52:49.306Z,98485.06
2022-07-29T09:55:19.967Z,98479.43
2022-07-29T09:57:48.979Z,98472.75
2022-07-29T10:00:19.729Z,98472.17
2022-07-29T10:02:49.728Z,98474.56
2022-07-29T10:05:20.975Z,98472.16
2022-07-29T10:07:54.200Z,98477.90
2022-07-29T10:10:25.498Z,98465.52
2022-07-29T10:12:58.018Z,98465.59
2022-07-29T10:15:32.371Z,98463.01
2022-07-29T10:18:01.536Z,98461.67
2022-07-29T10:20:31.121Z,98462.41
2022-07-29T10:23:00.410Z,98468.09
2022-07-29T10:25:29.486Z,98461.04
2022-07-29T10:27:58.969Z,98458.42
2022-07-29T10:30:28.347Z,98464.90
2022-07-29T10:33:19.127Z,98460.55
2022-07-29T10:36:12.900Z,98462.04
2022-07-29T10:38:53.586Z,98465.23
2022-07-29T10:41:44.390Z,98460.21
2022-07-29T10:44:22.911Z,98459.18
2022-07-29T10:46:56.827Z,98460.20
2022-07-29T10:49:30.467Z,98463.73
2022-07-29T10:52:05.858Z,98454.02
2022-07-29T10:54:53.010Z,98451.90
2022-07-29T10:57:52.571Z,98458.64
2022-07-29T11:00:32.102Z,98452.02
2022-07-29T11:03:04.386Z,98454.07
2022-07-29T11:05:53.824Z,98439.75
2022-07-29T11:08:27.726Z,98441.55
2022-07-29T11:11:37.021Z,98440.13
2022-07-29T11:14:10.193Z,98450.46
2022-07-29T11:17:06.426Z,98451.71
2022-07-29T11:19:40.172Z,98452.97
2022-07-29T11:22:11.263Z,98449.83
2022-07-29T11:24:50.155Z,98457.13
2022-07-29T11:27:22.336Z,98457.25
2022-07-29T11:29:56.325Z,98458.39
2022-07-29T11:32:36.848Z,98456.77
2022-07-29T11:35:18.984Z,98455.33
2022-07-29T11:38:09.545Z,98442.69
2022-07-29T11:40:40.218Z,98443.89
2022-07-29T11:43:36.153Z,98436.54
2022-07-29T11:46:10.151Z,98438.33
2022-07-29T11:48:43.705Z,98435.98
2022-07-29T11:51:15.325Z,98436.98
2022-07-29T11:56:44.039Z,98441.23
2022-07-29T11:59:15.125Z,98445.56
2022-07-29T12:02:06.832Z,98449.30
2022-07-29T12:04:51.536Z,98444.13
2022-07-29T12:07:34.724Z,98449.36
2022-07-29T12:10:06.288Z,98451.62
2022-07-29T12:12:35.857Z,98449.23
2022-07-29T12:15:18.053Z,98454.97
2022-07-29T12:17:49.620Z,98464.97
2022-07-29T12:20:25.346Z,98466.00
2022-07-29T12:22:55.296Z,98463.43
2022-07-29T12:25:33.750Z,98459.54
2022-07-29T12:28:05.178Z,98460.14
2022-07-29T12:30:40.253Z,98458.16
2022-07-29T12:33:20.664Z,98459.91
2022-07-29T12:36:06.142Z,98461.99
2022-07-29T12:38:37.679Z,98466.06
2022-07-29T12:41:06.698Z,98463.60
2022-07-29T12:43:35.651Z,98466.93
2022-07-29T12:46:15.276Z,98463.70
2022-07-29T12:48:44.888Z,98471.98
2022-07-29T12:51:15.242Z,98473.69
2022-07-29T12:54:02.398Z,98474.73
2022-07-29T12:56:46.554Z,98476.27
2022-07-29T12:59:19.436Z,98468.35
2022-07-29T13:12:15.564Z,98487.19
2022-07-29T13:14:46.071Z,98487.71
2022-07-29T13:17:17.007Z,98491.09
2022-07-29T13:19:47.600Z,98488.77
2022-07-29T13:22:18.459Z,98487.43
2022-07-29T13:24:52.718Z,98482.00
2022-07-29T13:27:24.082Z,98477.95
2022-07-29T13:29:53.617Z,98474.37
2022-07-29T13:32:28.788Z,98476.36
2022-07-29T13:34:59.663Z,98467.35
2022-07-29T13:37:29.946Z,98457.63
2022-07-29T13:39:58.001Z,98439.31
2022-07-29T13:42:27.426Z,98428.20
2022-07-29T13:44:56.329Z,98415.56
2022-07-29T13:47:32.834Z,98418.23
2022-07-29T13:50:10.211Z,98411.54
2022-07-29T13:52:39.147Z,98403.48
2022-07-29T13:55:10.164Z,98397.79
2022-07-29T13:57:39.171Z,98401.21
2022-07-29T14:00:10.651Z,98400.10
2022-07-29T14:02:39.462Z,98400.97
2022-07-29T14:05:10.139Z,98405.72
2022-07-29T14:07:39.500Z,98409.66
2022-07-29T14:10:09.678Z,98417.16
2022-07-29T14:12:38.630Z,98430.46
2022-07-29T14:15:09.177Z,98439.54
2022-07-29T14:17:37.998Z,98439.04
2022-07-29T14:20:08.373Z,98440.50
2022-07-29T14:22:42.345Z,98447.89
2022-07-29T14:25:15.051Z,98453.55
2022-07-29T14:27:44.647Z,98455.84
2022-07-29T14:30:14.873Z,98455.09
2022-07-29T14:32:43.646Z,98455.13
2022-07-29T14:35:12.537Z,98453.16
2022-07-29T14:37:42.119Z,98454.73
2022-07-29T14:40:12.023Z,98451.59
2022-07-29T14:42:41.033Z,98450.55
2022-07-29T14:45:10.572Z,98443.67
2022-07-29T14:47:40.109Z,98441.33
2022-07-29T14:50:10.642Z,98442.02
2022-07-29T14:52:39.800Z,98437.27
2022-07-29T14:55:16.623Z,98430.80
2022-07-29T14:57:48.561Z,98413.29
2022-07-29T15:00:18.080Z,98412.17
2022-07-29T15:03:02.019Z,98405.63
2022-07-29T15:05:32.511Z,98401.53
2022-07-29T15:08:01.610Z,98395.88
2022-07-29T15:10:30.785Z,98385.81
2022-07-29T15:12:59.556Z,98382.66
2022-07-29T15:15:29.464Z,98365.98
2022-07-29T15:17:58.323Z,98363.17
2022-07-29T15:20:27.479Z,98355.41
2022-07-29T15:22:56.649Z,98354.56
2022-07-29T15:25:26.406Z,98356.06
2022-07-29T15:28:01.271Z,98352.83
2022-07-29T15:30:33.317Z,98360.73
2022-07-29T15:33:04.226Z,98363.87
2022-07-29T15:35:40.559Z,98370.00
2022-07-29T15:38:09.858Z,98367.45
2022-07-29T15:40:40.681Z,98371.30
2022-07-29T15:43:09.540Z,98372.30
2022-07-29T15:45:40.513Z,98375.01
2022-07-29T15:48:14.568Z,98376.21
2022-07-29T15:50:43.804Z,98380.48
2022-07-29T15:53:16.071Z,98381.98
2022-07-29T15:55:44.882Z,98384.86
2022-07-29T15:58:16.972Z,98392.40
2022-07-29T16:00:45.896Z,98396.05
2022-07-29T16:03:15.617Z,98400.21
2022-07-29T16:05:44.814Z,98406.86
2022-07-29T16:08:13.636Z,98413.25
2022-07-29T16:10:42.546Z,98419.81
2022-07-29T16:13:11.280Z,98424.79
2022-07-29T16:16:02.641Z,98422.25
2022-07-29T16:18:32.652Z,98418.96
2022-07-29T16:21:01.371Z,98416.43
2022-07-29T16:23:30.165Z,98413.92
2022-07-29T16:26:00.561Z,98414.05
2022-07-29T16:28:30.840Z,98416.67
2022-07-29T16:31:00.116Z,98422.77
2022-07-29T16:33:29.017Z,98422.05
2022-07-29T16:36:18.475Z,98422.41
2022-07-29T16:38:48.069Z,98420.35
2022-07-29T16:41:16.794Z,98422.73
2022-07-29T16:43:45.761Z,98420.90
2022-07-29T16:46:15.611Z,98418.03
2022-07-29T16:48:49.031Z,98422.09
2022-07-29T16:51:17.883Z,98427.08
2022-07-29T16:53:50.344Z,98423.23
2022-07-29T16:56:19.347Z,98420.10
2022-07-29T16:58:48.222Z,98422.17
2022-07-29T17:01:17.582Z,98428.27
2022-07-29T17:04:04.862Z,98423.79
2022-07-29T17:06:35.309Z,98426.73
2022-07-29T17:09:06.397Z,98423.09
2022-07-29T17:11:53.568Z,98421.48
2022-07-29T17:14:25.263Z,98421.73
2022-07-29T17:17:01.177Z,98415.63
2022-07-29T17:19:31.989Z,98411.50
2022-07-29T17:22:10.498Z,98406.34
2022-07-29T17:24:41.977Z,98409.67
2022-07-29T17:27:11.205Z,98415.52
2022-07-29T17:29:40.285Z,98417.81
2022-07-29T17:32:10.194Z,98418.77
2022-07-29T17:34:41.071Z,98422.73
2022-07-29T17:37:11.451Z,98418.91
2022-07-29T17:39:42.050Z,98426.72
2022-07-29T17:42:13.304Z,98427.48
2022-07-29T17:44:42.490Z,98423.85
2022-07-29T17:47:16.516Z,98429.90
2022-07-29T17:49:46.657Z,98429.02
2022-07-29T17:52:17.740Z,98431.70
2022-07-29T17:54:48.595Z,98435.95
2022-07-29T17:57:17.492Z,98431.60
2022-07-29T17:59:46.283Z,98426.34
2022-07-29T18:02:15.216Z,98421.67
2022-07-29T18:04:44.136Z,98410.52
2022-07-29T18:07:13.059Z,98404.36
2022-07-29T18:09:41.931Z,98405.66
2022-07-29T18:12:11.537Z,98407.92
2022-07-29T18:14:40.579Z,98413.77
2022-07-29T18:17:09.472Z,98415.57
2022-07-29T18:19:38.297Z,98414.41
2022-07-29T18:22:09.810Z,98411.63
2022-07-29T18:24:39.109Z,98409.44
2022-07-29T18:27:08.080Z,98412.55
2022-07-29T18:29:37.194Z,98412.31
2022-07-29T18:32:07.396Z,98415.66
2022-07-29T18:34:36.592Z,98415.48
2022-07-29T18:37:05.434Z,98423.59
2022-07-29T18:39:35.478Z,98428.34
2022-07-29T18:42:07.704Z,98429.89
2022-07-29T18:44:43.595Z,98423.74
2022-07-29T18:47:17.960Z,98423.00
2022-07-29T18:49:46.994Z,98430.92
2022-07-29T18:52:16.052Z,98430.58
2022-07-29T18:54:45.234Z,98426.21
2022-07-29T18:57:54.745Z,98427.00
2022-07-29T19:00:10.377Z,98418.79
2022-07-29T19:02:44.678Z,98424.64
2022-07-29T19:05:16.759Z,98427.95
2022-07-29T19:07:45.632Z,98429.97
2022-07-29T19:10:14.822Z,98429.13
2022-07-29T19:12:43.740Z,98429.90
2022-07-29T19:15:12.849Z,98433.52
2022-07-29T19:17:49.546Z,98429.71
2022-07-29T19:20:18.417Z,98424.75
2022-07-29T19:22:47.254Z,98424.55
2022-07-29T19:25:16.380Z,98423.05
2022-07-29T19:27:46.179Z,98424.65
2022-07-29T19:30:15.401Z,98423.38
2022-07-29T19:32:44.674Z,98419.18
2022-07-29T19:35:31.012Z,98416.58
2022-07-29T19:38:02.351Z,98411.96
2022-07-29T19:40:32.570Z,98411.36
2022-07-29T19:43:02.915Z,98411.90
2022-07-29T19:45:52.303Z,98413.71
2022-07-29T19:48:24.007Z,98409.67
2022-07-29T19:50:54.954Z,98409.84
2022-07-29T19:53:23.781Z,98414.42
2022-07-29T19:55:53.124Z,98415.87
2022-07-29T19:58:22.494Z,98421.84
2022-07-29T20:00:57.804Z,98421.27
2022-07-29T20:03:27.160Z,98424.92
2022-07-29T20:05:55.988Z,98426.00
2022-07-29T20:08:24.808Z,98424.98
2022-07-29T20:10:55.446Z,98419.17
2022-07-29T20:13:24.347Z,98416.97
2022-07-29T20:15:53.294Z,98421.94
2022-07-29T20:18:22.182Z,98419.92
2022-07-29T20:20:55.554Z,98419.33
2022-07-29T20:23:33.232Z,98417.15
2022-07-29T20:26:08.719Z,98408.00
2022-07-29T20:28:39.869Z,98414.56
2022-07-29T20:31:15.139Z,98415.14
2022-07-29T20:33:48.976Z,98407.83
2022-07-29T20:36:23.233Z,98404.98
2022-07-29T20:39:02.230Z,98408.14
2022-07-29T20:41:51.814Z,98409.15
2022-07-29T20:44:25.656Z,98404.09
2022-07-29T20:47:00.687Z,98402.81
2022-07-29T20:49:36.941Z,98403.23
2022-07-29T20:52:09.526Z,98401.80
2022-07-29T20:54:39.699Z,98396.83
2022-07-29T20:57:08.536Z,98395.82
2022-07-29T20:59:37.413Z,98388.77
2022-07-29T21:02:06.308Z,98390.56
2022-07-29T21:04:38.205Z,98390.52
2022-07-29T21:07:06.972Z,98390.40
2022-07-29T21:09:35.745Z,98390.53
2022-07-29T21:12:05.725Z,98388.36
2022-07-29T21:14:47.431Z,98388.61
2022-07-29T21:17:18.889Z,98388.93
2022-07-29T21:19:51.835Z,98386.64
2022-07-29T21:22:23.438Z,98386.07
2022-07-29T21:24:52.199Z,98391.53
2022-07-29T21:27:39.162Z,98385.98
2022-07-29T21:30:10.281Z,98391.08
2022-07-29T21:32:39.151Z,98396.90
2022-07-29T21:35:18.197Z,98394.64
2022-07-29T21:38:01.036Z,98391.69
2022-07-29T21:40:30.182Z,98382.28
2022-07-29T21:42:59.052Z,98380.34
2022-07-29T21:45:29.674Z,98374.33
2022-07-29T21:47:58.456Z,98371.20
2022-07-29T21:50:27.263Z,98368.33
2022-07-29T21:52:56.093Z,98373.98
2022-07-29T21:55:25.970Z,98370.60
2022-07-29T21:57:56.734Z,98376.25
2022-07-29T22:00:25.957Z,98377.67
2022-07-29T22:02:57.330Z,98372.86
2022-07-29T22:05:26.193Z,98381.25
2022-07-29T22:07:57.030Z,98382.42
2022-07-29T22:10:27.145Z,98382.65
2022-07-29T22:12:57.722Z,98375.63
2022-07-29T22:15:27.209Z,98369.21
2022-07-29T22:17:56.063Z,98364.30
2022-07-29T22:20:25.239Z,98364.45
2022-07-29T22:22:54.191Z,98362.45
2022-07-29T22:25:22.959Z,98359.89
2022-07-29T22:27:51.678Z,98356.41
2022-07-29T22:30:20.660Z,98352.52
2022-07-29T22:32:49.467Z,98352.91
2022-07-29T22:35:18.330Z,98346.66
2022-07-29T22:37:47.125Z,98347.19
2022-07-29T22:40:15.865Z,98349.57
2022-07-29T22:42:44.701Z,98346.79
2022-07-29T22:45:13.417Z,98343.84
2022-07-29T22:47:48.028Z,98348.79
2022-07-29T22:50:17.812Z,98341.21
2022-07-29T22:52:46.838Z,98341.77
2022-07-29T22:55:15.848Z,98340.10
2022-07-29T22:57:44.594Z,98342.06
2022-07-29T23:00:15.602Z,98339.17
2022-07-29T23:02:44.320Z,98338.16
2022-07-29T23:05:16.547Z,98334.94
2022-07-29T23:07:48.413Z,98333.77
2022-07-29T23:10:17.232Z,98333.47
2022-07-29T23:12:46.170Z,98333.77
2022-07-29T23:15:15.044Z,98330.52
2022-07-29T23:17:44.111Z,98328.41
2022-07-29T23:20:14.969Z,98322.23
2022-07-29T23:22:43.843Z,98317.65
2022-07-29T23:25:12.708Z,98313.51
2022-07-29T23:27:41.816Z,98305.27
2022-07-29T23:30:11.996Z,98302.50
2022-07-29T23:32:40.917Z,98295.14
2022-07-29T23:35:10.740Z,98291.59
2022-07-29T23:37:39.138Z,98289.95
2022-07-29T23:40:14.253Z,98287.94
2022-07-29T23:42:44.082Z,98283.26
2022-07-29T23:45:13.711Z,98285.96
2022-07-29T23:47:45.593Z,98285.73
2022-07-29T23:50:16.191Z,98278.34
2022-07-29T23:52:45.161Z,98270.85
2022-07-29T23:55:38.180Z,98261.67
2022-07-29T23:58:03.663Z,98256.33
